sensor_id;sensor_type;location;lat;lon;timestamp;temperature;humidity
15262;DHT22;7733;51.554;13.590;2022-09-03T00:00:10;13.40;99.90
15262;DHT22;7733;51.554;13.590;2022-09-03T00:02:44;13.30;99.90
15262;DHT22;7733;51.554;13.590;2022-09-03T00:05:34;13.10;99.90
15262;DHT22;7733;51.554;13.590;2022-09-03T00:08:56;13.10;99.90
15262;DHT22;7733;51.554;13.590;2022-09-03T00:14:10;12.80;99.90
15262;DHT22;7733;51.554;13.590;2022-09-03T00:16:51;12.80;99.90
15262;DHT22;7733;51.554;13.590;2022-09-03T00:19:24;12.80;99.90
15262;DHT22;7733;51.554;13.590;2022-09-03T00:22:16;12.70;99.90
15262;DHT22;7733;51.554;13.590;2022-09-03T00:24:47;12.70;99.90
15262;DHT22;7733;51.554;13.590;2022-09-03T00:27:17;12.90;99.90
15262;DHT22;7733;51.554;13.590;2022-09-03T00:29:56;12.90;99.90
15262;DHT22;7733;51.554;13.590;2022-09-03T00:32:40;12.90;99.90
15262;DHT22;7733;51.554;13.590;2022-09-03T00:38:28;12.90;99.90
15262;DHT22;7733;51.554;13.590;2022-09-03T00:41:59;12.80;99.90
15262;DHT22;7733;51.554;13.590;2022-09-03T00:44:25;12.70;99.90
15262;DHT22;7733;51.554;13.590;2022-09-03T01:11:58;12.30;99.90
15262;DHT22;7733;51.554;13.590;2022-09-03T01:15:16;12.30;99.90
15262;DHT22;7733;51.554;13.590;2022-09-03T01:18:31;12.20;99.90
15262;DHT22;7733;51.554;13.590;2022-09-03T01:24:59;11.90;99.90
15262;DHT22;7733;51.554;13.590;2022-09-03T01:27:44;11.90;99.90
15262;DHT22;7733;51.554;13.590;2022-09-03T01:30:19;11.70;99.90
15262;DHT22;7733;51.554;13.590;2022-09-03T01:35:37;11.50;99.90
15262;DHT22;7733;51.554;13.590;2022-09-03T01:38:30;11.50;99.90
15262;DHT22;7733;51.554;13.590;2022-09-03T01:50:48;11.70;99.90
15262;DHT22;7733;51.554;13.590;2022-09-03T01:53:44;11.40;99.90
15262;DHT22;7733;51.554;13.590;2022-09-03T02:02:27;11.20;99.90
15262;DHT22;7733;51.554;13.590;2022-09-03T02:05:01;11.20;99.90
15262;DHT22;7733;51.554;13.590;2022-09-03T02:07:31;11.20;99.90
15262;DHT22;7733;51.554;13.590;2022-09-03T02:10:01;11.10;99.90
15262;DHT22;7733;51.554;13.590;2022-09-03T02:12:30;11.20;99.90
15262;DHT22;7733;51.554;13.590;2022-09-03T02:15:00;11.30;99.90
15262;DHT22;7733;51.554;13.590;2022-09-03T02:17:31;11.40;99.90
15262;DHT22;7733;51.554;13.590;2022-09-03T02:20:04;11.40;99.90
15262;DHT22;7733;51.554;13.590;2022-09-03T02:22:33;11.30;99.90
15262;DHT22;7733;51.554;13.590;2022-09-03T02:24:59;11.40;99.90
15262;DHT22;7733;51.554;13.590;2022-09-03T02:27:26;11.30;99.90
15262;DHT22;7733;51.554;13.590;2022-09-03T02:29:52;11.30;99.90
15262;DHT22;7733;51.554;13.590;2022-09-03T02:32:17;11.40;99.90
15262;DHT22;7733;51.554;13.590;2022-09-03T02:34:43;11.30;99.90
15262;DHT22;7733;51.554;13.590;2022-09-03T02:37:14;11.30;99.90
15262;DHT22;7733;51.554;13.590;2022-09-03T02:39:41;11.30;99.90
15262;DHT22;7733;51.554;13.590;2022-09-03T02:42:08;11.30;99.90
15262;DHT22;7733;51.554;13.590;2022-09-03T02:44:40;11.30;99.90
15262;DHT22;7733;51.554;13.590;2022-09-03T02:47:12;11.30;99.90
15262;DHT22;7733;51.554;13.590;2022-09-03T02:49:39;11.10;99.90
15262;DHT22;7733;51.554;13.590;2022-09-03T02:52:07;11.10;99.90
15262;DHT22;7733;51.554;13.590;2022-09-03T02:54:36;11.00;99.90
15262;DHT22;7733;51.554;13.590;2022-09-03T02:57:07;11.10;99.90
15262;DHT22;7733;51.554;13.590;2022-09-03T02:59:35;10.90;99.90
15262;DHT22;7733;51.554;13.590;2022-09-03T03:02:02;10.80;99.90
15262;DHT22;7733;51.554;13.590;2022-09-03T03:04:29;10.80;99.90
15262;DHT22;7733;51.554;13.590;2022-09-03T03:06:56;10.90;99.90
15262;DHT22;7733;51.554;13.590;2022-09-03T03:09:22;10.80;99.90
15262;DHT22;7733;51.554;13.590;2022-09-03T03:11:47;10.80;99.90
15262;DHT22;7733;51.554;13.590;2022-09-03T03:14:14;10.80;99.90
15262;DHT22;7733;51.554;13.590;2022-09-03T03:16:40;10.80;99.90
15262;DHT22;7733;51.554;13.590;2022-09-03T03:19:06;10.70;99.90
15262;DHT22;7733;51.554;13.590;2022-09-03T03:21:32;10.80;99.90
15262;DHT22;7733;51.554;13.590;2022-09-03T03:23:57;10.80;99.90
15262;DHT22;7733;51.554;13.590;2022-09-03T03:26:25;10.90;99.90
15262;DHT22;7733;51.554;13.590;2022-09-03T03:28:55;10.90;99.90
15262;DHT22;7733;51.554;13.590;2022-09-03T03:31:23;11.00;99.90
15262;DHT22;7733;51.554;13.590;2022-09-03T03:33:53;11.10;99.90
15262;DHT22;7733;51.554;13.590;2022-09-03T03:36:21;11.20;99.90
15262;DHT22;7733;51.554;13.590;2022-09-03T03:38:48;11.10;99.90
15262;DHT22;7733;51.554;13.590;2022-09-03T03:41:19;11.10;99.90
15262;DHT22;7733;51.554;13.590;2022-09-03T03:43:47;11.00;99.90
15262;DHT22;7733;51.554;13.590;2022-09-03T03:46:17;11.00;99.90
15262;DHT22;7733;51.554;13.590;2022-09-03T03:48:43;11.00;99.90
15262;DHT22;7733;51.554;13.590;2022-09-03T03:51:12;11.00;99.90
15262;DHT22;7733;51.554;13.590;2022-09-03T03:53:38;10.90;99.90
15262;DHT22;7733;51.554;13.590;2022-09-03T03:56:07;10.90;99.90
15262;DHT22;7733;51.554;13.590;2022-09-03T03:58:35;10.90;99.90
15262;DHT22;7733;51.554;13.590;2022-09-03T04:01:05;10.80;99.90
15262;DHT22;7733;51.554;13.590;2022-09-03T04:03:33;10.80;99.90
15262;DHT22;7733;51.554;13.590;2022-09-03T04:06:00;10.90;99.90
15262;DHT22;7733;51.554;13.590;2022-09-03T04:08:27;10.70;99.90
15262;DHT22;7733;51.554;13.590;2022-09-03T04:10:53;10.70;99.90
15262;DHT22;7733;51.554;13.590;2022-09-03T04:13:23;10.70;99.90
15262;DHT22;7733;51.554;13.590;2022-09-03T04:15:49;10.80;99.90
15262;DHT22;7733;51.554;13.590;2022-09-03T04:18:15;10.90;99.90
15262;DHT22;7733;51.554;13.590;2022-09-03T04:20:41;10.80;99.90
15262;DHT22;7733;51.554;13.590;2022-09-03T04:23:07;10.80;99.90
15262;DHT22;7733;51.554;13.590;2022-09-03T04:25:32;10.70;99.90
15262;DHT22;7733;51.554;13.590;2022-09-03T04:27:58;10.70;99.90
15262;DHT22;7733;51.554;13.590;2022-09-03T04:30:24;10.60;99.90
15262;DHT22;7733;51.554;13.590;2022-09-03T04:32:50;10.60;99.90
15262;DHT22;7733;51.554;13.590;2022-09-03T04:35:20;10.60;99.90
15262;DHT22;7733;51.554;13.590;2022-09-03T04:37:51;10.70;99.90
15262;DHT22;7733;51.554;13.590;2022-09-03T04:40:17;10.70;99.90
15262;DHT22;7733;51.554;13.590;2022-09-03T04:42:43;10.60;99.90
15262;DHT22;7733;51.554;13.590;2022-09-03T04:45:09;10.70;99.90
15262;DHT22;7733;51.554;13.590;2022-09-03T04:47:36;10.70;99.90
15262;DHT22;7733;51.554;13.590;2022-09-03T04:50:03;10.80;99.90
15262;DHT22;7733;51.554;13.590;2022-09-03T04:52:30;10.70;99.90
15262;DHT22;7733;51.554;13.590;2022-09-03T04:54:57;10.70;99.90
15262;DHT22;7733;51.554;13.590;2022-09-03T04:57:23;10.70;99.90
15262;DHT22;7733;51.554;13.590;2022-09-03T04:59:49;10.80;99.90
15262;DHT22;7733;51.554;13.590;2022-09-03T05:02:15;10.90;99.90
15262;DHT22;7733;51.554;13.590;2022-09-03T05:04:41;10.90;99.90
15262;DHT22;7733;51.554;13.590;2022-09-03T05:07:07;10.90;99.90
15262;DHT22;7733;51.554;13.590;2022-09-03T05:09:33;11.00;99.90
15262;DHT22;7733;51.554;13.590;2022-09-03T05:11:59;11.00;99.90
15262;DHT22;7733;51.554;13.590;2022-09-03T05:14:25;10.90;99.90
15262;DHT22;7733;51.554;13.590;2022-09-03T05:16:50;10.90;99.90
15262;DHT22;7733;51.554;13.590;2022-09-03T05:19:16;11.00;99.90
15262;DHT22;7733;51.554;13.590;2022-09-03T05:21:42;11.10;99.90
15262;DHT22;7733;51.554;13.590;2022-09-03T05:24:07;11.00;99.90
15262;DHT22;7733;51.554;13.590;2022-09-03T05:26:37;10.90;99.90
15262;DHT22;7733;51.554;13.590;2022-09-03T05:29:05;11.10;99.90
15262;DHT22;7733;51.554;13.590;2022-09-03T05:31:33;11.20;99.90
15262;DHT22;7733;51.554;13.590;2022-09-03T05:34:02;11.30;99.90
15262;DHT22;7733;51.554;13.590;2022-09-03T05:36:31;11.30;99.90
15262;DHT22;7733;51.554;13.590;2022-09-03T05:38:59;11.30;99.90
15262;DHT22;7733;51.554;13.590;2022-09-03T05:41:26;11.40;99.90
15262;DHT22;7733;51.554;13.590;2022-09-03T05:43:54;11.50;99.90
15262;DHT22;7733;51.554;13.590;2022-09-03T05:46:22;11.60;99.90
15262;DHT22;7733;51.554;13.590;2022-09-03T05:48:54;11.90;99.90
15262;DHT22;7733;51.554;13.590;2022-09-03T05:51:19;12.10;99.90
15262;DHT22;7733;51.554;13.590;2022-09-03T05:53:47;12.40;99.90
15262;DHT22;7733;51.554;13.590;2022-09-03T05:56:17;12.70;99.90
15262;DHT22;7733;51.554;13.590;2022-09-03T05:58:47;12.80;99.90
15262;DHT22;7733;51.554;13.590;2022-09-03T06:03:41;13.10;99.90
15262;DHT22;7733;51.554;13.590;2022-09-03T06:06:09;13.10;99.90
15262;DHT22;7733;51.554;13.590;2022-09-03T06:08:36;13.20;99.90
15262;DHT22;7733;51.554;13.590;2022-09-03T06:11:06;13.40;99.90
15262;DHT22;7733;51.554;13.590;2022-09-03T06:13:33;13.50;99.90
15262;DHT22;7733;51.554;13.590;2022-09-03T06:16:01;13.60;99.90
15262;DHT22;7733;51.554;13.590;2022-09-03T06:18:30;13.70;99.90
15262;DHT22;7733;51.554;13.590;2022-09-03T06:21:04;13.80;99.90
15262;DHT22;7733;51.554;13.590;2022-09-03T06:23:32;13.80;99.90
15262;DHT22;7733;51.554;13.590;2022-09-03T06:26:00;13.90;99.90
15262;DHT22;7733;51.554;13.590;2022-09-03T06:28:27;14.00;99.90
15262;DHT22;7733;51.554;13.590;2022-09-03T06:30:56;14.10;99.90
15262;DHT22;7733;51.554;13.590;2022-09-03T06:33:22;14.20;99.90
15262;DHT22;7733;51.554;13.590;2022-09-03T06:35:54;14.30;99.90
15262;DHT22;7733;51.554;13.590;2022-09-03T06:38:25;14.30;99.90
15262;DHT22;7733;51.554;13.590;2022-09-03T06:40:53;14.40;99.90
15262;DHT22;7733;51.554;13.590;2022-09-03T06:43:21;14.60;99.90
15262;DHT22;7733;51.554;13.590;2022-09-03T06:46:05;14.60;99.90
15262;DHT22;7733;51.554;13.590;2022-09-03T06:48:34;14.70;99.90
15262;DHT22;7733;51.554;13.590;2022-09-03T06:51:03;14.80;99.90
15262;DHT22;7733;51.554;13.590;2022-09-03T06:53:36;14.90;99.90
15262;DHT22;7733;51.554;13.590;2022-09-03T06:56:05;15.00;99.90
15262;DHT22;7733;51.554;13.590;2022-09-03T06:58:35;15.00;99.90
15262;DHT22;7733;51.554;13.590;2022-09-03T07:01:04;15.10;99.90
15262;DHT22;7733;51.554;13.590;2022-09-03T07:03:34;15.20;99.90
15262;DHT22;7733;51.554;13.590;2022-09-03T07:06:06;15.30;99.90
15262;DHT22;7733;51.554;13.590;2022-09-03T07:08:34;15.40;99.90
15262;DHT22;7733;51.554;13.590;2022-09-03T07:11:01;15.60;99.90
15262;DHT22;7733;51.554;13.590;2022-09-03T07:13:30;15.70;99.90
15262;DHT22;7733;51.554;13.590;2022-09-03T07:16:09;15.70;99.90
15262;DHT22;7733;51.554;13.590;2022-09-03T07:18:37;15.70;99.90
15262;DHT22;7733;51.554;13.590;2022-09-03T07:21:06;15.70;99.90
15262;DHT22;7733;51.554;13.590;2022-09-03T07:23:34;15.80;99.90
15262;DHT22;7733;51.554;13.590;2022-09-03T07:26:03;15.90;99.90
15262;DHT22;7733;51.554;13.590;2022-09-03T07:28:31;15.90;99.90
15262;DHT22;7733;51.554;13.590;2022-09-03T07:31:06;16.00;99.90
15262;DHT22;7733;51.554;13.590;2022-09-03T07:33:36;16.10;99.90
15262;DHT22;7733;51.554;13.590;2022-09-03T07:36:12;16.30;99.90
15262;DHT22;7733;51.554;13.590;2022-09-03T07:38:41;16.40;99.90
15262;DHT22;7733;51.554;13.590;2022-09-03T07:41:09;16.50;99.90
15262;DHT22;7733;51.554;13.590;2022-09-03T07:43:39;16.50;99.90
15262;DHT22;7733;51.554;13.590;2022-09-03T07:46:12;16.60;99.90
15262;DHT22;7733;51.554;13.590;2022-09-03T07:48:56;16.80;99.90
15262;DHT22;7733;51.554;13.590;2022-09-03T07:51:25;16.80;99.90
15262;DHT22;7733;51.554;13.590;2022-09-03T07:53:54;17.00;99.90
15262;DHT22;7733;51.554;13.590;2022-09-03T07:56:25;17.00;99.90
15262;DHT22;7733;51.554;13.590;2022-09-03T07:58:52;17.20;99.90
15262;DHT22;7733;51.554;13.590;2022-09-03T08:01:23;17.40;99.90
15262;DHT22;7733;51.554;13.590;2022-09-03T08:03:52;17.50;99.90
15262;DHT22;7733;51.554;13.590;2022-09-03T08:06:19;17.60;99.90
15262;DHT22;7733;51.554;13.590;2022-09-03T08:08:47;17.70;99.90
15262;DHT22;7733;51.554;13.590;2022-09-03T08:11:15;17.80;99.90
15262;DHT22;7733;51.554;13.590;2022-09-03T08:13:45;17.90;99.90
15262;DHT22;7733;51.554;13.590;2022-09-03T08:16:15;18.20;99.90
15262;DHT22;7733;51.554;13.590;2022-09-03T08:18:43;18.20;99.90
15262;DHT22;7733;51.554;13.590;2022-09-03T08:21:14;18.30;99.90
15262;DHT22;7733;51.554;13.590;2022-09-03T08:23:45;18.50;99.90
15262;DHT22;7733;51.554;13.590;2022-09-03T08:26:14;18.70;99.90
15262;DHT22;7733;51.554;13.590;2022-09-03T08:28:41;18.80;99.90
15262;DHT22;7733;51.554;13.590;2022-09-03T08:31:08;19.00;99.90
15262;DHT22;7733;51.554;13.590;2022-09-03T08:33:43;19.20;99.90
15262;DHT22;7733;51.554;13.590;2022-09-03T08:36:15;19.30;99.90
15262;DHT22;7733;51.554;13.590;2022-09-03T08:38:47;19.50;99.90
15262;DHT22;7733;51.554;13.590;2022-09-03T08:47:28;19.70;98.10
15262;DHT22;7733;51.554;13.590;2022-09-03T08:50:03;19.70;97.60
15262;DHT22;7733;51.554;13.590;2022-09-03T08:55:30;19.80;97.40
15262;DHT22;7733;51.554;13.590;2022-09-03T08:58:13;20.20;95.90
15262;DHT22;7733;51.554;13.590;2022-09-03T09:00:56;20.30;95.40
15262;DHT22;7733;51.554;13.590;2022-09-03T09:06:54;20.70;94.60
15262;DHT22;7733;51.554;13.590;2022-09-03T09:10:07;20.90;94.80
15262;DHT22;7733;51.554;13.590;2022-09-03T09:13:00;21.00;93.00
15262;DHT22;7733;51.554;13.590;2022-09-03T09:16:13;21.00;93.20
15262;DHT22;7733;51.554;13.590;2022-09-03T09:19:34;21.00;92.10
15262;DHT22;7733;51.554;13.590;2022-09-03T09:22:43;21.00;91.20
15262;DHT22;7733;51.554;13.590;2022-09-03T09:25:20;21.30;90.70
15262;DHT22;7733;51.554;13.590;2022-09-03T09:28:00;21.40;90.40
15262;DHT22;7733;51.554;13.590;2022-09-03T09:30:29;21.30;90.00
15262;DHT22;7733;51.554;13.590;2022-09-03T09:32:56;21.30;90.10
15262;DHT22;7733;51.554;13.590;2022-09-03T09:35:22;21.40;89.00
15262;DHT22;7733;51.554;13.590;2022-09-03T09:37:50;21.60;87.80
15262;DHT22;7733;51.554;13.590;2022-09-03T09:40:26;21.60;87.50
15262;DHT22;7733;51.554;13.590;2022-09-03T09:43:05;22.00;85.70
15262;DHT22;7733;51.554;13.590;2022-09-03T09:45:35;21.90;84.70
15262;DHT22;7733;51.554;13.590;2022-09-03T09:51:05;21.90;84.40
15262;DHT22;7733;51.554;13.590;2022-09-03T09:53:34;21.80;84.60
15262;DHT22;7733;51.554;13.590;2022-09-03T09:56:00;22.20;83.90
15262;DHT22;7733;51.554;13.590;2022-09-03T09:58:30;22.10;84.00
15262;DHT22;7733;51.554;13.590;2022-09-03T10:01:03;22.30;84.40
15262;DHT22;7733;51.554;13.590;2022-09-03T10:03:47;22.40;82.50
15262;DHT22;7733;51.554;13.590;2022-09-03T10:06:15;22.60;83.90
15262;DHT22;7733;51.554;13.590;2022-09-03T10:09:16;22.50;83.00
15262;DHT22;7733;51.554;13.590;2022-09-03T10:12:01;21.70;85.00
15262;DHT22;7733;51.554;13.590;2022-09-03T10:14:44;21.80;85.60
15262;DHT22;7733;51.554;13.590;2022-09-03T10:20:18;22.00;85.40
15262;DHT22;7733;51.554;13.590;2022-09-03T10:23:09;22.30;84.60
15262;DHT22;7733;51.554;13.590;2022-09-03T10:26:22;22.70;84.30
15262;DHT22;7733;51.554;13.590;2022-09-03T10:28:38;23.10;81.70
15262;DHT22;7733;51.554;13.590;2022-09-03T10:43:30;23.10;78.80
15262;DHT22;7733;51.554;13.590;2022-09-03T10:46:15;23.20;79.50
15262;DHT22;7733;51.554;13.590;2022-09-03T10:49:08;23.30;78.90
15262;DHT22;7733;51.554;13.590;2022-09-03T10:51:54;23.20;79.70
15262;DHT22;7733;51.554;13.590;2022-09-03T10:54:55;23.00;79.00
15262;DHT22;7733;51.554;13.590;2022-09-03T11:00:57;22.70;78.90
15262;DHT22;7733;51.554;13.590;2022-09-03T11:03:42;22.80;78.60
15262;DHT22;7733;51.554;13.590;2022-09-03T11:06:29;22.90;79.20
15262;DHT22;7733;51.554;13.590;2022-09-03T11:09:14;23.10;78.80
15262;DHT22;7733;51.554;13.590;2022-09-03T11:11:50;23.80;73.60
15262;DHT22;7733;51.554;13.590;2022-09-03T11:14:31;23.70;75.10
15262;DHT22;7733;51.554;13.590;2022-09-03T11:17:22;23.60;71.10
15262;DHT22;7733;51.554;13.590;2022-09-03T11:22:42;24.20;71.10
15262;DHT22;7733;51.554;13.590;2022-09-03T11:25:11;24.40;69.10
15262;DHT22;7733;51.554;13.590;2022-09-03T11:30:37;24.40;67.50
15262;DHT22;7733;51.554;13.590;2022-09-03T11:33:18;24.30;68.90
15262;DHT22;7733;51.554;13.590;2022-09-03T11:35:55;24.50;69.50
15262;DHT22;7733;51.554;13.590;2022-09-03T11:38:29;24.40;69.10
15262;DHT22;7733;51.554;13.590;2022-09-03T11:41:22;24.20;68.50
15262;DHT22;7733;51.554;13.590;2022-09-03T11:43:51;24.50;68.60
15262;DHT22;7733;51.554;13.590;2022-09-03T11:48:55;23.80;69.50
15262;DHT22;7733;51.554;13.590;2022-09-03T11:51:42;23.50;71.20
15262;DHT22;7733;51.554;13.590;2022-09-03T11:56:37;24.20;70.70
15262;DHT22;7733;51.554;13.590;2022-09-03T12:01:44;24.50;69.90
15262;DHT22;7733;51.554;13.590;2022-09-03T12:04:18;24.70;70.50
15262;DHT22;7733;51.554;13.590;2022-09-03T12:09:49;24.80;68.90
15262;DHT22;7733;51.554;13.590;2022-09-03T12:21:07;24.70;69.10
15262;DHT22;7733;51.554;13.590;2022-09-03T12:23:41;25.20;69.20
15262;DHT22;7733;51.554;13.590;2022-09-03T12:26:15;25.50;68.10
15262;DHT22;7733;51.554;13.590;2022-09-03T12:28:48;25.40;68.30
15262;DHT22;7733;51.554;13.590;2022-09-03T12:31:19;24.90;68.10
15262;DHT22;7733;51.554;13.590;2022-09-03T12:34:01;24.50;68.60
15262;DHT22;7733;51.554;13.590;2022-09-03T12:41:53;24.80;66.80
15262;DHT22;7733;51.554;13.590;2022-09-03T12:44:49;24.50;68.40
15262;DHT22;7733;51.554;13.590;2022-09-03T12:47:17;24.60;69.00
15262;DHT22;7733;51.554;13.590;2022-09-03T12:49:52;24.90;68.40
15262;DHT22;7733;51.554;13.590;2022-09-03T12:52:33;25.00;67.90
15262;DHT22;7733;51.554;13.590;2022-09-03T13:00:33;24.50;70.10
15262;DHT22;7733;51.554;13.590;2022-09-03T13:03:07;24.70;68.70
15262;DHT22;7733;51.554;13.590;2022-09-03T13:05:43;24.20;69.60
15262;DHT22;7733;51.554;13.590;2022-09-03T13:08:18;24.00;70.10
15262;DHT22;7733;51.554;13.590;2022-09-03T13:10:53;24.10;71.10
15262;DHT22;7733;51.554;13.590;2022-09-03T13:18:59;24.30;70.20
15262;DHT22;7733;51.554;13.590;2022-09-03T13:22:11;24.40;70.00
15262;DHT22;7733;51.554;13.590;2022-09-03T13:28:03;24.20;70.00
15262;DHT22;7733;51.554;13.590;2022-09-03T13:31:31;24.10;70.00
15262;DHT22;7733;51.554;13.590;2022-09-03T13:34:12;24.20;69.60
15262;DHT22;7733;51.554;13.590;2022-09-03T13:39:47;24.30;69.60
15262;DHT22;7733;51.554;13.590;2022-09-03T13:42:47;24.60;69.10
15262;DHT22;7733;51.554;13.590;2022-09-03T13:45:22;24.70;68.60
15262;DHT22;7733;51.554;13.590;2022-09-03T13:48:02;24.70;69.20
15262;DHT22;7733;51.554;13.590;2022-09-03T13:51:03;24.50;69.60
15262;DHT22;7733;51.554;13.590;2022-09-03T13:57:04;24.30;69.10
15262;DHT22;7733;51.554;13.590;2022-09-03T13:59:59;24.30;70.10
15262;DHT22;7733;51.554;13.590;2022-09-03T14:02:54;24.00;70.20
15262;DHT22;7733;51.554;13.590;2022-09-03T14:05:49;23.70;70.90
15262;DHT22;7733;51.554;13.590;2022-09-03T14:15:00;23.40;72.60
15262;DHT22;7733;51.554;13.590;2022-09-03T14:17:58;23.50;71.90
15262;DHT22;7733;51.554;13.590;2022-09-03T14:20:46;23.70;72.10
15262;DHT22;7733;51.554;13.590;2022-09-03T14:23:42;23.80;71.50
15262;DHT22;7733;51.554;13.590;2022-09-03T14:26:24;24.10;71.80
15262;DHT22;7733;51.554;13.590;2022-09-03T14:29:17;23.70;71.60
15262;DHT22;7733;51.554;13.590;2022-09-03T14:35:32;23.50;73.00
15262;DHT22;7733;51.554;13.590;2022-09-03T14:38:12;23.60;73.10
15262;DHT22;7733;51.554;13.590;2022-09-03T14:41:16;23.50;73.10
15262;DHT22;7733;51.554;13.590;2022-09-03T14:45:09;23.50;72.60
15262;DHT22;7733;51.554;13.590;2022-09-03T14:53:11;24.00;72.70
15262;DHT22;7733;51.554;13.590;2022-09-03T15:02:26;24.50;72.30
15262;DHT22;7733;51.554;13.590;2022-09-03T15:05:18;24.30;72.10
15262;DHT22;7733;51.554;13.590;2022-09-03T15:07:53;23.80;73.10
15262;DHT22;7733;51.554;13.590;2022-09-03T15:10:40;23.70;73.30
15262;DHT22;7733;51.554;13.590;2022-09-03T15:19:11;23.90;73.50
15262;DHT22;7733;51.554;13.590;2022-09-03T15:22:12;24.10;72.90
15262;DHT22;7733;51.554;13.590;2022-09-03T15:25:06;24.00;73.30
15262;DHT22;7733;51.554;13.590;2022-09-03T15:31:00;23.70;73.70
15262;DHT22;7733;51.554;13.590;2022-09-03T15:33:51;23.70;74.90
15262;DHT22;7733;51.554;13.590;2022-09-03T15:36:36;23.40;74.80
15262;DHT22;7733;51.554;13.590;2022-09-03T15:39:09;23.30;75.10
15262;DHT22;7733;51.554;13.590;2022-09-03T15:41:43;23.50;75.20
15262;DHT22;7733;51.554;13.590;2022-09-03T15:44:16;23.60;75.00
15262;DHT22;7733;51.554;13.590;2022-09-03T15:49:57;23.40;75.50
15262;DHT22;7733;51.554;13.590;2022-09-03T15:55:35;23.10;76.70
15262;DHT22;7733;51.554;13.590;2022-09-03T16:01:17;22.70;78.10
15262;DHT22;7733;51.554;13.590;2022-09-03T16:06:45;22.60;79.00
15262;DHT22;7733;51.554;13.590;2022-09-03T16:09:35;22.70;79.30
15262;DHT22;7733;51.554;13.590;2022-09-03T16:15:13;22.50;79.70
15262;DHT22;7733;51.554;13.590;2022-09-03T16:23:19;22.30;80.80
15262;DHT22;7733;51.554;13.590;2022-09-03T16:26:17;22.20;80.60
15262;DHT22;7733;51.554;13.590;2022-09-03T16:28:59;22.30;80.60
15262;DHT22;7733;51.554;13.590;2022-09-03T16:40:33;22.40;80.30
15262;DHT22;7733;51.554;13.590;2022-09-03T16:43:18;22.30;80.30
15262;DHT22;7733;51.554;13.590;2022-09-03T16:46:15;22.20;80.40
15262;DHT22;7733;51.554;13.590;2022-09-03T16:51:55;22.10;81.10
15262;DHT22;7733;51.554;13.590;2022-09-03T16:54:54;22.00;81.50
15262;DHT22;7733;51.554;13.590;2022-09-03T16:57:42;22.10;81.40
15262;DHT22;7733;51.554;13.590;2022-09-03T17:00:20;22.00;81.60
15262;DHT22;7733;51.554;13.590;2022-09-03T17:03:15;21.90;81.80
15262;DHT22;7733;51.554;13.590;2022-09-03T17:09:41;21.90;82.40
15262;DHT22;7733;51.554;13.590;2022-09-03T17:12:54;21.90;82.40
15262;DHT22;7733;51.554;13.590;2022-09-03T17:15:46;21.90;82.80
15262;DHT22;7733;51.554;13.590;2022-09-03T17:18:41;21.80;83.40
15262;DHT22;7733;51.554;13.590;2022-09-03T17:24:34;21.60;83.70
15262;DHT22;7733;51.554;13.590;2022-09-03T17:36:27;21.20;85.40
15262;DHT22;7733;51.554;13.590;2022-09-03T17:39:29;21.10;85.80
15262;DHT22;7733;51.554;13.590;2022-09-03T17:42:25;21.10;86.20
15262;DHT22;7733;51.554;13.590;2022-09-03T17:54:39;20.80;88.20
15262;DHT22;7733;51.554;13.590;2022-09-03T17:57:16;20.70;88.20
15262;DHT22;7733;51.554;13.590;2022-09-03T18:00:06;20.60;88.70
15262;DHT22;7733;51.554;13.590;2022-09-03T18:03:04;20.50;88.80
15262;DHT22;7733;51.554;13.590;2022-09-03T18:05:48;20.50;89.10
15262;DHT22;7733;51.554;13.590;2022-09-03T18:08:35;20.40;89.60
15262;DHT22;7733;51.554;13.590;2022-09-03T18:11:13;20.30;89.90
15262;DHT22;7733;51.554;13.590;2022-09-03T18:13:54;20.20;90.30
15262;DHT22;7733;51.554;13.590;2022-09-03T18:16:34;20.20;90.40
15262;DHT22;7733;51.554;13.590;2022-09-03T18:19:58;20.30;90.50
15262;DHT22;7733;51.554;13.590;2022-09-03T18:22:31;20.20;90.70
15262;DHT22;7733;51.554;13.590;2022-09-03T18:25:33;20.00;91.20
15262;DHT22;7733;51.554;13.590;2022-09-03T18:28:30;19.90;91.40
15262;DHT22;7733;51.554;13.590;2022-09-03T18:31:22;19.90;91.70
15262;DHT22;7733;51.554;13.590;2022-09-03T18:34:07;19.70;92.00
15262;DHT22;7733;51.554;13.590;2022-09-03T18:36:52;19.70;92.10
15262;DHT22;7733;51.554;13.590;2022-09-03T18:39:43;19.70;92.20
15262;DHT22;7733;51.554;13.590;2022-09-03T18:46:00;19.60;92.50
15262;DHT22;7733;51.554;13.590;2022-09-03T18:52:29;19.30;93.20
15262;DHT22;7733;51.554;13.590;2022-09-03T19:01:55;19.10;93.80
15262;DHT22;7733;51.554;13.590;2022-09-03T19:07:46;18.90;94.60
15262;DHT22;7733;51.554;13.590;2022-09-03T19:13:44;18.80;95.20
15262;DHT22;7733;51.554;13.590;2022-09-03T19:16:40;18.70;95.60
15262;DHT22;7733;51.554;13.590;2022-09-03T19:22:50;18.60;96.00
15262;DHT22;7733;51.554;13.590;2022-09-03T19:25:35;18.60;96.20
15262;DHT22;7733;51.554;13.590;2022-09-03T19:28:24;18.60;96.60
15262;DHT22;7733;51.554;13.590;2022-09-03T19:31:46;18.60;96.60
15262;DHT22;7733;51.554;13.590;2022-09-03T19:35:10;18.50;97.10
15262;DHT22;7733;51.554;13.590;2022-09-03T19:38:17;18.60;97.10
15262;DHT22;7733;51.554;13.590;2022-09-03T19:41:14;18.50;97.40
15262;DHT22;7733;51.554;13.590;2022-09-03T19:44:17;18.50;97.60
15262;DHT22;7733;51.554;13.590;2022-09-03T19:47:04;18.50;97.80
15262;DHT22;7733;51.554;13.590;2022-09-03T19:50:13;18.40;98.00
15262;DHT22;7733;51.554;13.590;2022-09-03T19:53:07;18.40;98.40
15262;DHT22;7733;51.554;13.590;2022-09-03T19:56:02;18.40;98.40
15262;DHT22;7733;51.554;13.590;2022-09-03T19:59:17;18.40;98.70
15262;DHT22;7733;51.554;13.590;2022-09-03T20:02:04;18.30;98.90
15262;DHT22;7733;51.554;13.590;2022-09-03T20:04:58;18.30;99.10
15262;DHT22;7733;51.554;13.590;2022-09-03T20:07:46;18.30;99.30
15262;DHT22;7733;51.554;13.590;2022-09-03T20:10:35;18.20;99.70
15262;DHT22;7733;51.554;13.590;2022-09-03T20:13:13;18.20;99.90
15262;DHT22;7733;51.554;13.590;2022-09-03T20:16:06;18.20;99.90
15262;DHT22;7733;51.554;13.590;2022-09-03T20:21:46;18.10;99.90
15262;DHT22;7733;51.554;13.590;2022-09-03T20:24:44;18.10;99.90
15262;DHT22;7733;51.554;13.590;2022-09-03T20:27:50;18.10;99.90
15262;DHT22;7733;51.554;13.590;2022-09-03T20:30:41;18.10;99.90
15262;DHT22;7733;51.554;13.590;2022-09-03T20:33:29;18.10;99.90
15262;DHT22;7733;51.554;13.590;2022-09-03T20:36:47;18.00;99.90
15262;DHT22;7733;51.554;13.590;2022-09-03T20:42:53;18.00;99.90
15262;DHT22;7733;51.554;13.590;2022-09-03T20:45:57;17.90;99.90
15262;DHT22;7733;51.554;13.590;2022-09-03T20:51:54;17.80;99.90
15262;DHT22;7733;51.554;13.590;2022-09-03T20:54:36;17.80;99.90
15262;DHT22;7733;51.554;13.590;2022-09-03T20:57:18;17.70;99.90
15262;DHT22;7733;51.554;13.590;2022-09-03T21:03:08;17.80;99.90
15262;DHT22;7733;51.554;13.590;2022-09-03T21:09:48;17.70;99.90